Time;durP1;ratioP1;P1;durP2;ratioP2;P2;SDS_P1;SDS_P2;PMS_P1;PMS_P2;Temp;Humidity;BMP_temperature;BMP_pressure;BME280_temperature;BME280_humidity;BME280_pressure;Samples;Min_cycle;Max_cycle;Signal;HPM_P1;HPM_P2
2021/04/16 00:00:31;;;;;;;17.00;4.97;;;;;;;;;;5083106;28;32614;-71
2021/04/16 00:02:57;;;;;;;7.90;3.95;;;;;;;;;;5083060;28;33183;-71
2021/04/16 00:05:23;;;;;;;6.75;3.38;;;;;;;;;;5083305;28;32780;-71
2021/04/16 00:07:49;;;;;;;11.32;4.10;;;;;;;;;;5083026;28;32219;-70
2021/04/16 00:10:16;;;;;;;10.45;4.07;;;;;;;;;;5083130;28;33649;-71
2021/04/16 00:12:42;;;;;;;7.65;3.72;;;;;;;;;;5081564;28;31058;-71
2021/04/16 00:15:12;;;;;;;6.18;3.60;;;;;;;;;;5082975;28;31895;-71
2021/04/16 00:17:38;;;;;;;8.48;3.50;;;;;;;;;;5083057;28;32075;-70
2021/04/16 00:20:06;;;;;;;8.45;3.30;;;;;;;;;;5082928;28;33571;-71
2021/04/16 00:22:34;;;;;;;8.93;4.00;;;;;;;;;;5083449;28;32536;-71
2021/04/16 00:25:00;;;;;;;7.05;3.50;;;;;;;;;;5082844;28;31895;-70
2021/04/16 00:27:25;;;;;;;8.82;3.70;;;;;;;;;;5082478;28;32158;-71
2021/04/16 00:29:51;;;;;;;7.65;3.88;;;;;;;;;;5082819;28;32586;-71
2021/04/16 00:32:17;;;;;;;13.30;4.65;;;;;;;;;;5082736;28;32856;-70
2021/04/16 00:34:43;;;;;;;6.93;3.88;;;;;;;;;;5082986;28;31886;-71
2021/04/16 00:37:08;;;;;;;8.43;3.80;;;;;;;;;;5082019;28;33037;-71
2021/04/16 00:39:34;;;;;;;7.72;3.95;;;;;;;;;;5083343;28;33654;-72
2021/04/16 00:42:00;;;;;;;7.25;4.05;;;;;;;;;;5082582;28;32213;-72
2021/04/16 00:44:26;;;;;;;9.90;3.75;;;;;;;;;;5082145;28;32448;-71
2021/04/16 00:46:57;;;;;;;6.60;3.72;;;;;;;;;;5082657;28;31991;-71
2021/04/16 00:49:31;;;;;;;6.82;3.45;;;;;;;;;;5082647;28;32645;-71
2021/04/16 00:51:59;;;;;;;7.75;3.80;;;;;;;;;;5082142;28;32232;-70
2021/04/16 00:54:27;;;;;;;6.63;3.97;;;;;;;;;;5082237;28;31829;-72
2021/04/16 00:56:53;;;;;;;7.05;3.13;;;;;;;;;;5082328;28;31879;-71
2021/04/16 00:59:22;;;;;;;11.82;3.17;;;;;;;;;;5082065;28;32590;-71
2021/04/16 01:01:47;;;;;;;8.20;3.67;;;;;;;;;;5082222;28;32301;-71
2021/04/16 01:04:13;;;;;;;10.07;3.47;;;;;;;;;;5082339;28;32852;-74
2021/04/16 01:06:39;;;;;;;7.75;4.00;;;;;;;;;;5082323;28;32202;-74
2021/04/16 01:09:05;;;;;;;11.80;3.55;;;;;;;;;;5081244;28;33512;-73
2021/04/16 01:11:31;;;;;;;7.43;3.60;;;;;;;;;;5081987;28;32236;-74
2021/04/16 01:13:57;;;;;;;9.05;3.60;;;;;;;;;;5082434;28;31757;-75
2021/04/16 01:16:28;;;;;;;6.72;3.63;;;;;;;;;;5082141;28;31969;-73
2021/04/16 01:18:54;;;;;;;5.15;3.03;;;;;;;;;;5079115;28;33583;-73
2021/04/16 01:21:23;;;;;;;8.15;3.65;;;;;;;;;;5082188;28;32896;-75
2021/04/16 01:23:51;;;;;;;7.70;3.55;;;;;;;;;;5081924;28;32799;-75
2021/04/16 01:26:21;;;;;;;8.38;3.70;;;;;;;;;;5081214;28;32671;-73
2021/04/16 01:28:47;;;;;;;10.65;3.88;;;;;;;;;;5081009;28;32506;-74
2021/04/16 01:31:15;;;;;;;7.53;3.83;;;;;;;;;;5082411;28;32342;-74
2021/04/16 01:33:40;;;;;;;5.35;3.72;;;;;;;;;;5081749;28;32019;-73
2021/04/16 01:36:08;;;;;;;9.55;3.65;;;;;;;;;;5081506;28;32000;-75
2021/04/16 01:38:33;;;;;;;9.60;4.05;;;;;;;;;;5081707;28;33730;-74
2021/04/16 01:40:59;;;;;;;7.90;3.60;;;;;;;;;;5081119;28;32191;-73
2021/04/16 01:43:27;;;;;;;8.07;3.97;;;;;;;;;;5081593;28;31915;-73
2021/04/16 01:46:00;;;;;;;11.93;3.58;;;;;;;;;;5081635;28;31793;-73
2021/04/16 01:48:33;;;;;;;8.15;3.92;;;;;;;;;;5081320;28;33496;-74
2021/04/16 01:50:59;;;;;;;9.85;3.47;;;;;;;;;;5081576;28;32192;-73
2021/04/16 01:53:24;;;;;;;11.80;3.47;;;;;;;;;;5081730;28;31833;-74
2021/04/16 01:55:51;;;;;;;7.25;3.20;;;;;;;;;;5081463;28;32173;-75
2021/04/16 01:58:17;;;;;;;7.20;3.53;;;;;;;;;;5081351;28;32637;-73
2021/04/16 02:00:42;;;;;;;8.02;3.53;;;;;;;;;;5081415;28;32336;-72
2021/04/16 02:03:08;;;;;;;9.10;3.15;;;;;;;;;;5081198;28;32862;-73
2021/04/16 02:05:34;;;;;;;7.15;3.30;;;;;;;;;;5081367;28;32048;-72
2021/04/16 02:07:59;;;;;;;7.22;3.65;;;;;;;;;;5081167;28;33625;-72
2021/04/16 02:10:25;;;;;;;6.15;3.40;;;;;;;;;;5081297;28;32203;-72
2021/04/16 02:12:52;;;;;;;6.05;3.47;;;;;;;;;;5081147;28;31957;-72
2021/04/16 02:15:17;;;;;;;7.65;3.72;;;;;;;;;;5081158;28;32090;-73
2021/04/16 02:17:43;;;;;;;7.40;3.63;;;;;;;;;;5081111;28;32536;-71
2021/04/16 02:20:11;;;;;;;6.18;3.20;;;;;;;;;;5081226;28;32162;-71
2021/04/16 02:22:37;;;;;;;8.45;3.38;;;;;;;;;;5081101;28;33031;-72
2021/04/16 02:25:03;;;;;;;5.45;3.38;;;;;;;;;;5080855;28;32856;-73
2021/04/16 02:27:28;;;;;;;5.30;3.33;;;;;;;;;;5080889;28;31813;-72
2021/04/16 02:29:55;;;;;;;12.32;3.70;;;;;;;;;;5080544;28;33202;-71
2021/04/16 02:32:20;;;;;;;7.25;3.63;;;;;;;;;;5079272;28;30777;-72
2021/04/16 02:34:46;;;;;;;5.78;3.22;;;;;;;;;;5081125;28;32935;-72
2021/04/16 02:37:14;;;;;;;6.45;3.58;;;;;;;;;;5080953;28;32604;-71
2021/04/16 02:39:40;;;;;;;6.55;3.30;;;;;;;;;;5081207;28;31920;-73
2021/04/16 02:42:06;;;;;;;6.78;3.72;;;;;;;;;;5084293;28;32861;-72
2021/04/16 02:44:32;;;;;;;8.65;3.70;;;;;;;;;;5084350;28;32334;-72
2021/04/16 02:46:58;;;;;;;6.00;3.40;;;;;;;;;;5084600;28;32447;-72
2021/04/16 02:49:24;;;;;;;5.78;3.58;;;;;;;;;;5084384;28;32301;-72
2021/04/16 02:51:52;;;;;;;6.50;3.40;;;;;;;;;;5084122;28;31908;-72
2021/04/16 02:54:18;;;;;;;7.72;3.38;;;;;;;;;;5084048;28;32159;-72
2021/04/16 02:56:44;;;;;;;5.35;3.55;;;;;;;;;;5084137;28;32516;-72
2021/04/16 02:59:10;;;;;;;5.60;3.35;;;;;;;;;;5082969;28;33149;-72
2021/04/16 03:01:36;;;;;;;7.53;3.22;;;;;;;;;;5084326;28;31788;-72
2021/04/16 03:04:02;;;;;;;7.97;3.88;;;;;;;;;;5084265;28;32944;-72
2021/04/16 03:06:29;;;;;;;10.50;3.80;;;;;;;;;;5083991;28;32570;-71
2021/04/16 03:08:56;;;;;;;5.30;3.28;;;;;;;;;;5084101;28;32185;-73
2021/04/16 03:11:23;;;;;;;10.45;3.70;;;;;;;;;;5083955;28;32782;-73
2021/04/16 03:13:48;;;;;;;11.73;3.58;;;;;;;;;;5083797;28;32159;-74
2021/04/16 03:16:14;;;;;;;5.15;3.55;;;;;;;;;;5084009;28;33522;-73
2021/04/16 03:18:40;;;;;;;8.15;3.40;;;;;;;;;;5083547;28;32250;-72
2021/04/16 03:21:06;;;;;;;5.97;3.97;;;;;;;;;;5084029;28;32231;-72
2021/04/16 03:23:32;;;;;;;5.82;3.40;;;;;;;;;;5083691;28;33135;-72
2021/04/16 03:25:58;;;;;;;9.30;3.67;;;;;;;;;;5083434;28;32466;-71
2021/04/16 03:28:23;;;;;;;8.38;3.40;;;;;;;;;;5083485;28;33239;-73
2021/04/16 03:30:50;;;;;;;6.78;3.47;;;;;;;;;;5083763;28;31961;-72
2021/04/16 03:33:16;;;;;;;7.95;3.40;;;;;;;;;;5085227;28;31957;-72
2021/04/16 03:35:41;;;;;;;7.63;4.05;;;;;;;;;;5084062;28;32600;-73
2021/04/16 03:38:07;;;;;;;4.30;2.97;;;;;;;;;;5083670;28;32801;-72
2021/04/16 03:40:33;;;;;;;4.78;3.25;;;;;;;;;;5083484;28;31879;-72
2021/04/16 03:42:59;;;;;;;8.48;3.42;;;;;;;;;;5083282;28;32173;-73
2021/04/16 03:45:25;;;;;;;5.95;3.88;;;;;;;;;;5083510;28;32680;-73
2021/04/16 03:47:51;;;;;;;7.13;3.85;;;;;;;;;;5083232;28;33267;-73
2021/04/16 03:50:18;;;;;;;7.78;3.95;;;;;;;;;;5083361;28;32113;-73
2021/04/16 03:52:44;;;;;;;6.32;3.60;;;;;;;;;;5082441;28;32958;-73
2021/04/16 03:55:10;;;;;;;7.40;4.05;;;;;;;;;;5083087;28;32712;-72
2021/04/16 03:57:36;;;;;;;8.52;4.05;;;;;;;;;;5083011;28;32202;-72
2021/04/16 04:00:04;;;;;;;8.57;3.92;;;;;;;;;;5083212;28;31974;-70
2021/04/16 04:02:30;;;;;;;10.05;4.05;;;;;;;;;;5083025;28;32611;-71
2021/04/16 04:04:56;;;;;;;5.38;3.75;;;;;;;;;;5083044;28;32603;-73
2021/04/16 04:07:22;;;;;;;9.02;3.20;;;;;;;;;;5083204;28;32298;-72
2021/04/16 04:09:48;;;;;;;6.63;3.78;;;;;;;;;;5083208;28;32889;-72
2021/04/16 04:12:14;;;;;;;9.02;3.97;;;;;;;;;;5082948;28;32115;-72
2021/04/16 04:14:39;;;;;;;7.20;3.92;;;;;;;;;;5082989;28;32682;-72
2021/04/16 04:17:06;;;;;;;4.97;3.35;;;;;;;;;;5082916;28;32960;-75
2021/04/16 04:19:32;;;;;;;5.90;3.63;;;;;;;;;;5083690;28;33013;-77
2021/04/16 04:21:59;;;;;;;8.55;3.83;;;;;;;;;;5081494;28;32942;-74
2021/04/16 04:24:25;;;;;;;9.63;4.15;;;;;;;;;;5083249;28;33605;-76
2021/04/16 04:26:50;;;;;;;6.90;4.13;;;;;;;;;;5082679;28;33191;-74
2021/04/16 04:29:18;;;;;;;6.75;3.65;;;;;;;;;;5082792;28;31972;-74
2021/04/16 04:31:47;;;;;;;9.73;3.65;;;;;;;;;;5081897;28;31378;-75
2021/04/16 04:34:17;;;;;;;6.47;3.85;;;;;;;;;;5082160;28;30894;-74
2021/04/16 04:36:43;;;;;;;5.13;3.20;;;;;;;;;;5083193;28;31907;-72
2021/04/16 04:39:08;;;;;;;5.70;3.55;;;;;;;;;;5083057;28;31925;-76
2021/04/16 04:41:34;;;;;;;7.22;3.92;;;;;;;;;;5081379;28;30567;-73
2021/04/16 04:44:00;;;;;;;5.40;3.42;;;;;;;;;;5082518;28;33503;-73
2021/04/16 04:46:25;;;;;;;5.55;3.72;;;;;;;;;;5081288;28;30693;-73
2021/04/16 04:48:51;;;;;;;16.95;4.45;;;;;;;;;;5082438;28;31935;-73
2021/04/16 04:51:17;;;;;;;5.95;3.40;;;;;;;;;;5082145;28;32551;-72
2021/04/16 04:53:43;;;;;;;11.02;3.17;;;;;;;;;;5082440;28;32419;-73
2021/04/16 04:56:08;;;;;;;13.25;4.30;;;;;;;;;;5082078;28;33091;-73
2021/04/16 04:58:34;;;;;;;17.02;3.67;;;;;;;;;;5082269;28;32040;-72
2021/04/16 05:01:00;;;;;;;8.50;3.42;;;;;;;;;;5082369;28;32602;-73
2021/04/16 05:03:25;;;;;;;8.90;3.28;;;;;;;;;;5081515;28;32595;-75
2021/04/16 05:05:51;;;;;;;4.00;2.90;;;;;;;;;;5082254;28;33182;-75
2021/04/16 05:08:17;;;;;;;8.90;2.90;;;;;;;;;;5082085;28;32868;-75
2021/04/16 05:10:42;;;;;;;5.35;2.92;;;;;;;;;;5082359;28;32218;-76
2021/04/16 05:13:08;;;;;;;11.02;3.28;;;;;;;;;;5082221;28;32571;-75
2021/04/16 05:15:34;;;;;;;6.10;3.30;;;;;;;;;;5082087;28;31870;-75
2021/04/16 05:17:59;;;;;;;8.45;3.20;;;;;;;;;;5082118;28;32049;-74
2021/04/16 05:20:25;;;;;;;5.18;2.60;;;;;;;;;;5081738;28;32117;-75
2021/04/16 05:22:51;;;;;;;9.38;2.85;;;;;;;;;;5081799;28;32591;-71
2021/04/16 05:25:17;;;;;;;5.45;2.85;;;;;;;;;;5082164;28;33070;-69
2021/04/16 05:27:42;;;;;;;8.75;3.15;;;;;;;;;;5081643;28;31968;-75
2021/04/16 05:30:13;;;;;;;4.53;2.70;;;;;;;;;;5084403;28;31731;-70
2021/04/16 05:32:39;;;;;;;7.28;3.28;;;;;;;;;;5082476;28;31133;-77
2021/04/16 05:35:05;;;;;;;6.88;2.80;;;;;;;;;;5081838;28;32245;-74
2021/04/16 05:37:30;;;;;;;7.82;2.72;;;;;;;;;;5081334;28;31545;-74
2021/04/16 05:39:56;;;;;;;6.97;3.42;;;;;;;;;;5081602;28;32983;-75
2021/04/16 05:42:22;;;;;;;14.90;3.45;;;;;;;;;;5081164;28;32634;-74
2021/04/16 05:44:48;;;;;;;8.02;3.45;;;;;;;;;;5081415;28;33244;-73
2021/04/16 05:47:14;;;;;;;6.97;3.05;;;;;;;;;;5081152;28;31858;-75
2021/04/16 05:49:40;;;;;;;13.18;2.83;;;;;;;;;;5081427;28;31984;-74
2021/04/16 05:52:06;;;;;;;4.15;2.83;;;;;;;;;;5081115;28;33640;-70
2021/04/16 05:54:31;;;;;;;10.82;2.92;;;;;;;;;;5081373;28;32294;-70
2021/04/16 05:56:57;;;;;;;7.68;2.83;;;;;;;;;;5080600;28;32036;-68
2021/04/16 05:59:23;;;;;;;8.18;3.58;;;;;;;;;;5081314;28;31990;-68
2021/04/16 06:01:48;;;;;;;6.05;3.30;;;;;;;;;;5081455;28;33671;-69
2021/04/16 06:04:18;;;;;;;6.57;3.42;;;;;;;;;;5081131;28;32261;-71
2021/04/16 06:06:44;;;;;;;5.20;3.05;;;;;;;;;;5081188;28;31921;-70
2021/04/16 06:09:10;;;;;;;11.13;3.35;;;;;;;;;;5081252;28;32329;-68
2021/04/16 06:11:36;;;;;;;14.73;4.10;;;;;;;;;;5080611;28;33499;-66
2021/04/16 06:14:02;;;;;;;11.07;3.65;;;;;;;;;;5080644;28;33126;-66
2021/04/16 06:16:27;;;;;;;6.40;3.85;;;;;;;;;;5080829;28;31875;-68
2021/04/16 06:18:53;;;;;;;10.88;3.95;;;;;;;;;;5079760;28;30463;-73
2021/04/16 06:21:19;;;;;;;11.18;4.10;;;;;;;;;;5080864;28;32606;-74
2021/04/16 06:23:44;;;;;;;6.15;3.88;;;;;;;;;;5081273;28;32378;-74
2021/04/16 06:26:10;;;;;;;9.10;3.70;;;;;;;;;;5080545;28;32507;-70
2021/04/16 06:28:36;;;;;;;6.07;3.50;;;;;;;;;;5081248;28;31781;-74
2021/04/16 06:31:02;;;;;;;8.98;3.40;;;;;;;;;;5080679;28;32581;-73
2021/04/16 06:33:30;;;;;;;7.80;3.42;;;;;;;;;;5080835;28;33242;-74
2021/04/16 06:35:57;;;;;;;5.30;3.13;;;;;;;;;;5080684;28;32484;-73
2021/04/16 06:38:25;;;;;;;9.38;4.15;;;;;;;;;;5080810;28;32662;-74
2021/04/16 06:40:52;;;;;;;7.53;4.38;;;;;;;;;;5080530;28;32482;-72
2021/04/16 06:43:20;;;;;;;8.82;3.72;;;;;;;;;;5080778;28;32215;-72
2021/04/16 06:45:50;;;;;;;10.85;3.33;;;;;;;;;;5081019;28;31871;-73
2021/04/16 06:48:17;;;;;;;7.00;2.80;;;;;;;;;;5080610;28;32733;-73
2021/04/16 06:50:44;;;;;;;6.72;2.88;;;;;;;;;;5080542;28;32531;-72
2021/04/16 06:53:27;;;;;;;8.95;3.30;;;;;;;;;;5080665;28;31954;-73
2021/04/16 06:55:56;;;;;;;5.57;2.90;;;;;;;;;;5079498;28;31638;-74
2021/04/16 06:58:28;;;;;;;5.72;3.08;;;;;;;;;;5080523;28;32934;-73
2021/04/16 07:01:17;;;;;;;6.13;3.63;;;;;;;;;;5080516;28;32818;-73
2021/04/16 07:03:44;;;;;;;6.15;3.05;;;;;;;;;;5082226;28;32883;-70
2021/04/16 07:06:24;;;;;;;9.27;3.85;;;;;;;;;;5081830;28;32898;-73
2021/04/16 07:09:06;;;;;;;8.60;3.75;;;;;;;;;;5081757;28;32173;-75
2021/04/16 07:11:37;;;;;;;9.15;3.45;;;;;;;;;;5080731;28;32722;-75
2021/04/16 07:17:34;;;;;;;6.00;3.50;;;;;;;;;;5080995;28;32404;-76
2021/04/16 07:20:00;;;;;;;7.65;3.38;;;;;;;;;;5080187;28;32117;-74
2021/04/16 07:22:36;;;;;;;8.10;3.67;;;;;;;;;;5080769;28;33141;-69
2021/04/16 07:25:11;;;;;;;6.78;3.08;;;;;;;;;;5079173;28;30349;-71
2021/04/16 07:27:44;;;;;;;13.05;3.67;;;;;;;;;;5081198;28;31870;-73
2021/04/16 07:30:30;;;;;;;11.38;3.88;;;;;;;;;;5084061;28;32031;-72
2021/04/16 07:32:58;;;;;;;8.73;3.08;;;;;;;;;;5083408;28;32765;-72
2021/04/16 07:35:23;;;;;;;15.48;2.78;;;;;;;;;;5084112;28;32407;-74
2021/04/16 07:37:57;;;;;;;6.63;3.25;;;;;;;;;;5083769;28;31913;-75
2021/04/16 07:40:25;;;;;;;9.30;3.30;;;;;;;;;;5083402;28;32005;-76
2021/04/16 07:42:53;;;;;;;9.68;3.45;;;;;;;;;;5065454;28;31177;-72
2021/04/16 07:45:18;;;;;;;15.45;3.40;;;;;;;;;;5082135;28;31432;-74
2021/04/16 07:47:45;;;;;;;8.75;4.22;;;;;;;;;;5083615;28;31838;-76
2021/04/16 07:50:12;;;;;;;7.60;3.20;;;;;;;;;;5083814;28;32128;-75
2021/04/16 07:52:46;;;;;;;10.00;3.70;;;;;;;;;;5083097;28;32704;-73
2021/04/16 07:55:28;;;;;;;5.28;2.90;;;;;;;;;;5083410;28;32388;-74
2021/04/16 07:58:03;;;;;;;6.60;3.00;;;;;;;;;;5083381;28;31823;-74
2021/04/16 08:00:31;;;;;;;8.20;3.67;;;;;;;;;;5083312;28;32087;-75
2021/04/16 08:03:02;;;;;;;17.27;3.72;;;;;;;;;;5081978;28;31016;-74
2021/04/16 08:05:34;;;;;;;9.65;3.33;;;;;;;;;;5080436;28;32299;-75
2021/04/16 08:08:17;;;;;;;8.35;3.00;;;;;;;;;;5080626;28;31933;-75
2021/04/16 08:10:47;;;;;;;8.32;3.58;;;;;;;;;;5083225;28;31806;-75
2021/04/16 08:13:17;;;;;;;11.60;2.97;;;;;;;;;;5082921;28;32534;-75
2021/04/16 08:15:43;;;;;;;7.68;3.10;;;;;;;;;;5082604;28;33220;-74
2021/04/16 08:18:22;;;;;;;7.93;3.47;;;;;;;;;;5082799;28;31882;-74
2021/04/16 08:20:57;;;;;;;6.03;3.03;;;;;;;;;;5080163;28;31967;-73
2021/04/16 08:23:23;;;;;;;7.57;2.50;;;;;;;;;;5083056;28;32606;-75
2021/04/16 08:25:53;;;;;;;11.27;3.03;;;;;;;;;;5082647;28;32240;-75
2021/04/16 08:28:28;;;;;;;5.28;2.85;;;;;;;;;;5082734;28;32810;-75
2021/04/16 08:30:57;;;;;;;10.05;3.35;;;;;;;;;;5080065;28;31919;-74
2021/04/16 08:33:25;;;;;;;3.80;2.45;;;;;;;;;;5082624;28;32599;-75
2021/04/16 08:36:10;;;;;;;8.20;3.20;;;;;;;;;;5082449;28;33110;-74
2021/04/16 08:38:45;;;;;;;9.30;3.22;;;;;;;;;;5082437;28;32810;-75
2021/04/16 08:41:11;;;;;;;6.30;2.92;;;;;;;;;;5080113;28;31993;-75
2021/04/16 08:43:47;;;;;;;7.18;2.80;;;;;;;;;;5082124;28;32557;-75
2021/04/16 08:46:15;;;;;;;6.20;2.42;;;;;;;;;;5082510;28;33156;-71
2021/04/16 08:48:46;;;;;;;9.50;2.95;;;;;;;;;;5082084;28;32951;-70
2021/04/16 08:51:14;;;;;;;5.63;1.67;;;;;;;;;;5080062;28;32058;-68
2021/04/16 08:53:41;;;;;;;5.85;3.22;;;;;;;;;;5082687;28;33604;-72
2021/04/16 08:56:18;;;;;;;3.67;2.13;;;;;;;;;;5084548;28;32192;-70
2021/04/16 08:58:44;;;;;;;8.57;2.58;;;;;;;;;;5083337;28;31953;-71
2021/04/16 09:01:12;;;;;;;4.88;2.28;;;;;;;;;;5082645;28;32937;-70
2021/04/16 09:03:38;;;;;;;9.07;2.70;;;;;;;;;;5081942;28;32674;-70
2021/04/16 09:06:04;;;;;;;5.35;2.20;;;;;;;;;;5082580;28;32093;-71
2021/04/16 09:08:41;;;;;;;6.43;2.08;;;;;;;;;;5082723;28;31677;-70
2021/04/16 09:11:08;;;;;;;3.47;2.22;;;;;;;;;;5082343;28;33096;-71
2021/04/16 09:13:39;;;;;;;2.55;1.27;;;;;;;;;;5082059;28;33519;-69
2021/04/16 09:16:14;;;;;;;5.72;2.60;;;;;;;;;;5082473;28;33229;-70
2021/04/16 09:18:40;;;;;;;2.28;0.73;;;;;;;;;;5082059;28;31822;-70
2021/04/16 09:21:05;;;;;;;7.57;2.17;;;;;;;;;;5082345;28;32010;-69
2021/04/16 09:23:34;;;;;;;10.25;2.78;;;;;;;;;;5081659;28;33458;-70
2021/04/16 09:26:00;;;;;;;4.57;2.13;;;;;;;;;;5081611;28;32346;-71
2021/04/16 09:28:25;;;;;;;5.72;2.40;;;;;;;;;;5081949;28;31862;-71
2021/04/16 09:30:51;;;;;;;3.38;1.80;;;;;;;;;;5081675;28;32140;-74
2021/04/16 09:33:21;;;;;;;5.63;2.10;;;;;;;;;;5082091;28;33365;-73
2021/04/16 09:35:46;;;;;;;7.20;2.70;;;;;;;;;;5082020;28;32174;-75
2021/04/16 09:38:24;;;;;;;4.75;2.55;;;;;;;;;;5081530;28;31862;-74
2021/04/16 09:41:10;;;;;;;2.28;1.30;;;;;;;;;;5080263;28;30474;-74
2021/04/16 09:43:36;;;;;;;8.90;3.30;;;;;;;;;;5081144;28;32456;-73
2021/04/16 09:46:22;;;;;;;2.63;1.40;;;;;;;;;;5081300;28;33210;-74
2021/04/16 09:48:49;;;;;;;8.18;2.80;;;;;;;;;;5081663;28;31684;-72
2021/04/16 09:51:34;;;;;;;3.33;1.50;;;;;;;;;;5080931;28;33031;-73
2021/04/16 09:54:12;;;;;;;1.90;1.45;;;;;;;;;;5078868;28;32641;-73
2021/04/16 09:56:38;;;;;;;8.07;2.90;;;;;;;;;;5081690;28;32314;-70
2021/04/16 09:59:06;;;;;;;7.45;2.67;;;;;;;;;;5081495;28;31748;-72
2021/04/16 10:01:31;;;;;;;5.93;2.08;;;;;;;;;;5081438;28;32178;-74
2021/04/16 10:04:00;;;;;;;4.80;2.42;;;;;;;;;;5081415;28;33599;-74
2021/04/16 10:06:27;;;;;;;5.55;1.85;;;;;;;;;;5080915;28;32318;-74
2021/04/16 10:09:11;;;;;;;5.45;3.08;;;;;;;;;;5081465;28;32820;-73
2021/04/16 10:11:46;;;;;;;3.65;2.40;;;;;;;;;;5081221;28;32094;-66
2021/04/16 10:14:13;;;;;;;5.05;3.00;;;;;;;;;;5078631;28;32824;-74
2021/04/16 10:16:39;;;;;;;5.03;2.50;;;;;;;;;;5081068;28;32978;-74
2021/04/16 10:19:18;;;;;;;3.47;1.88;;;;;;;;;;5081029;28;32858;-73
2021/04/16 10:21:44;;;;;;;5.43;2.67;;;;;;;;;;5080837;28;31876;-72
2021/04/16 10:59:00;;;;;;;4.60;2.03;;;;;;;;;;5087703;28;32596;-71
2021/04/16 12:38:22;;;;;;;10.23;2.55;;;;;;;;;;5082638;28;32633;-73
2021/04/16 12:40:48;;;;;;;3.45;1.55;;;;;;;;;;5080147;28;32102;-74
2021/04/16 12:43:13;;;;;;;0.52;0.38;;;;;;;;;;5083046;28;31912;-74
2021/04/16 12:45:39;;;;;;;1.70;1.08;;;;;;;;;;5082504;28;31995;-72
2021/04/16 12:48:05;;;;;;;4.55;1.80;;;;;;;;;;5082579;28;32589;-75
2021/04/16 12:50:32;;;;;;;0.75;0.45;;;;;;;;;;5082404;28;32584;-77
2021/04/16 12:52:57;;;;;;;4.55;2.80;;;;;;;;;;5082392;28;32273;-71
2021/04/16 12:55:24;;;;;;;2.30;1.58;;;;;;;;;;5081981;28;32005;-72
2021/04/16 12:57:51;;;;;;;6.15;2.05;;;;;;;;;;5082203;28;33497;-72
2021/04/16 13:00:20;;;;;;;8.00;3.35;;;;;;;;;;5082359;28;31889;-71
2021/04/16 13:02:46;;;;;;;1.48;0.85;;;;;;;;;;5082522;28;30924;-72
2021/04/16 13:05:13;;;;;;;1.17;0.93;;;;;;;;;;5082224;28;32050;-71
2021/04/16 13:07:39;;;;;;;1.35;0.80;;;;;;;;;;5081685;28;32604;-72
2021/04/16 13:10:15;;;;;;;4.75;2.35;;;;;;;;;;5082426;28;32288;-72
2021/04/16 13:12:41;;;;;;;5.20;2.78;;;;;;;;;;5079398;28;32843;-72
2021/04/16 13:15:07;;;;;;;5.20;2.20;;;;;;;;;;5082066;28;31901;-71
2021/04/16 13:17:33;;;;;;;2.60;1.15;;;;;;;;;;5082196;28;32536;-72
2021/04/16 13:19:59;;;;;;;5.68;2.75;;;;;;;;;;5082021;28;32224;-70
2021/04/16 13:22:27;;;;;;;3.70;2.38;;;;;;;;;;5081613;28;32922;-71
2021/04/16 13:24:53;;;;;;;3.88;1.83;;;;;;;;;;5080949;28;31860;-71
2021/04/16 13:27:21;;;;;;;1.17;0.73;;;;;;;;;;5081829;28;32540;-71
2021/04/16 13:29:46;;;;;;;4.13;1.38;;;;;;;;;;5082396;28;33276;-71
2021/04/16 13:32:14;;;;;;;4.05;1.80;;;;;;;;;;5081977;28;31962;-71
2021/04/16 13:34:40;;;;;;;5.60;2.45;;;;;;;;;;5082039;28;32013;-71
2021/04/16 13:37:08;;;;;;;4.43;2.45;;;;;;;;;;5082012;28;32477;-72
2021/04/16 13:39:33;;;;;;;6.38;2.17;;;;;;;;;;5081707;28;32266;-71
2021/04/16 13:41:59;;;;;;;8.80;2.88;;;;;;;;;;5081590;28;32031;-71
2021/04/16 13:44:25;;;;;;;4.50;2.35;;;;;;;;;;5081497;28;32996;-70
2021/04/16 13:46:52;;;;;;;4.13;2.50;;;;;;;;;;5079130;28;32479;-71
2021/04/16 13:49:19;;;;;;;2.35;1.60;;;;;;;;;;5081803;28;32178;-70
2021/04/16 13:51:45;;;;;;;4.38;2.53;;;;;;;;;;5081261;28;31879;-70
2021/04/16 13:54:11;;;;;;;4.90;2.45;;;;;;;;;;5081047;28;33070;-70
2021/04/16 13:56:37;;;;;;;7.40;3.20;;;;;;;;;;5079785;28;32837;-70
2021/04/16 13:59:04;;;;;;;7.38;2.88;;;;;;;;;;5081384;28;32306;-70
2021/04/16 14:01:29;;;;;;;11.05;2.88;;;;;;;;;;5080930;28;31853;-70
2021/04/16 14:04:00;;;;;;;4.28;2.85;;;;;;;;;;5081286;28;32074;-71
2021/04/16 14:06:32;;;;;;;6.90;3.30;;;;;;;;;;5081151;28;32349;-71
2021/04/16 14:09:04;;;;;;;8.05;3.30;;;;;;;;;;5079635;28;32164;-71
2021/04/16 14:11:31;;;;;;;4.93;2.97;;;;;;;;;;5081125;28;31871;-71
2021/04/16 14:13:58;;;;;;;5.22;2.42;;;;;;;;;;5081079;28;31911;-71
2021/04/16 14:16:32;;;;;;;5.65;2.50;;;;;;;;;;5081009;28;33556;-71
2021/04/16 14:19:05;;;;;;;8.50;3.35;;;;;;;;;;5079866;28;31556;-70
2021/04/16 14:21:33;;;;;;;5.17;2.90;;;;;;;;;;5080998;28;32925;-71
2021/04/16 14:23:59;;;;;;;11.18;3.10;;;;;;;;;;5080844;28;32950;-71
2021/04/16 14:26:25;;;;;;;7.80;2.67;;;;;;;;;;5080350;28;32446;-71
2021/04/16 14:28:51;;;;;;;12.77;3.00;;;;;;;;;;5080738;28;32732;-71
2021/04/16 14:31:16;;;;;;;6.53;2.85;;;;;;;;;;5080607;28;32007;-73
2021/04/16 14:33:43;;;;;;;7.72;2.90;;;;;;;;;;5080529;28;32642;-70
2021/04/16 14:36:09;;;;;;;5.68;2.85;;;;;;;;;;5082261;28;33282;-72
2021/04/16 14:38:35;;;;;;;9.30;2.83;;;;;;;;;;5084700;28;32276;-71
2021/04/16 14:41:01;;;;;;;7.85;3.10;;;;;;;;;;5084568;28;32470;-71
2021/04/16 14:43:27;;;;;;;6.47;2.80;;;;;;;;;;5084794;28;33021;-71
2021/04/16 14:45:53;;;;;;;7.00;3.00;;;;;;;;;;5084305;28;33528;-74
2021/04/16 14:48:20;;;;;;;8.23;2.92;;;;;;;;;;5084760;28;33195;-73
2021/04/16 14:50:47;;;;;;;7.13;2.88;;;;;;;;;;5084187;28;32611;-73
2021/04/16 14:53:27;;;;;;;6.18;2.90;;;;;;;;;;5084414;28;31962;-72
2021/04/16 14:55:52;;;;;;;8.68;3.42;;;;;;;;;;5084080;28;32169;-73
2021/04/16 14:58:26;;;;;;;6.53;2.97;;;;;;;;;;5084433;28;32933;-72
2021/04/16 15:00:52;;;;;;;;;;;;;;;;;;5082479;28;31881;-74
2021/04/16 15:03:17;;;;;;;8.43;2.92;;;;;;;;;;5083987;28;32328;-75
2021/04/16 15:05:43;;;;;;;6.25;2.45;;;;;;;;;;5084226;28;32587;-77
2021/04/16 15:08:12;;;;;;;7.32;2.50;;;;;;;;;;5084290;28;32473;-73
2021/04/16 15:10:39;;;;;;;7.28;2.92;;;;;;;;;;5084062;28;33073;-73
2021/04/16 15:13:06;;;;;;;12.60;3.70;;;;;;;;;;5084062;28;31870;-74
2021/04/16 15:15:34;;;;;;;7.32;3.28;;;;;;;;;;5084005;28;32881;-73
2021/04/16 15:17:59;;;;;;;10.23;3.45;;;;;;;;;;5083917;28;33288;-72
2021/04/16 15:20:26;;;;;;;10.70;3.35;;;;;;;;;;5083851;28;32023;-73
2021/04/16 15:22:52;;;;;;;12.80;4.15;;;;;;;;;;5083909;28;32010;-73
2021/04/16 15:25:19;;;;;;;11.27;4.28;;;;;;;;;;5081193;28;33284;-73
2021/04/16 15:27:46;;;;;;;7.47;4.00;;;;;;;;;;5083604;28;32888;-72
2021/04/16 15:30:18;;;;;;;11.55;3.47;;;;;;;;;;5082378;28;31506;-72
2021/04/16 15:32:44;;;;;;;10.25;3.42;;;;;;;;;;5083398;28;32966;-73
2021/04/16 15:46:34;;;;;;;4.93;3.40;;;;;;;;;;5082250;28;33665;-72
2021/04/16 15:49:00;;;;;;;8.55;3.63;;;;;;;;;;5079893;28;33277;-72
2021/04/16 15:51:27;;;;;;;11.43;4.20;;;;;;;;;;5083244;28;32960;-70
2021/04/16 15:53:53;;;;;;;6.95;3.17;;;;;;;;;;5083276;28;32047;-70
2021/04/16 15:56:27;;;;;;;7.05;3.65;;;;;;;;;;5083409;28;32540;-71
2021/04/16 15:58:56;;;;;;;12.50;4.05;;;;;;;;;;5080562;28;32187;-72
2021/04/16 16:01:24;;;;;;;12.85;5.82;;;;;;;;;;5082145;28;30315;-71
2021/04/16 16:03:50;;;;;;;7.30;3.75;;;;;;;;;;5082943;28;32861;-72
2021/04/16 16:06:15;;;;;;;12.32;3.33;;;;;;;;;;5081594;28;32797;-72
2021/04/16 16:08:41;;;;;;;16.77;4.78;;;;;;;;;;5082918;28;32507;-71
2021/04/16 16:11:18;;;;;;;9.63;5.20;;;;;;;;;;5082976;28;31926;-71
2021/04/16 16:13:44;;;;;;;13.40;4.40;;;;;;;;;;5080401;28;33042;-71
2021/04/16 16:16:15;;;;;;;9.73;3.45;;;;;;;;;;5082619;28;32577;-72
2021/04/16 16:18:42;;;;;;;10.02;3.95;;;;;;;;;;5083022;28;32331;-72
2021/04/16 16:21:10;;;;;;;8.52;3.83;;;;;;;;;;5083114;28;31974;-72
2021/04/16 16:23:35;;;;;;;8.80;4.05;;;;;;;;;;5082739;28;32121;-72
2021/04/16 16:26:01;;;;;;;17.05;4.70;;;;;;;;;;5082609;28;32533;-72
2021/04/16 16:28:28;;;;;;;15.95;4.28;;;;;;;;;;5082800;28;33169;-72
2021/04/16 16:30:55;;;;;;;11.35;4.00;;;;;;;;;;5082719;28;32977;-72
2021/04/16 16:33:20;;;;;;;9.32;3.80;;;;;;;;;;5082834;28;30533;-72
2021/04/16 16:35:47;;;;;;;13.75;4.70;;;;;;;;;;5082839;28;33226;-71
2021/04/16 16:38:14;;;;;;;11.32;4.28;;;;;;;;;;5082630;28;32425;-72
2021/04/16 16:40:40;;;;;;;13.70;3.42;;;;;;;;;;5082390;28;32014;-73
2021/04/16 16:43:20;;;;;;;10.75;3.90;;;;;;;;;;5082275;28;32010;-72
2021/04/16 16:45:47;;;;;;;11.65;2.85;;;;;;;;;;5082030;28;33592;-73
2021/04/16 16:48:13;;;;;;;12.50;3.55;;;;;;;;;;5082494;28;33203;-72
2021/04/16 16:50:40;;;;;;;10.73;3.92;;;;;;;;;;5082387;28;31955;-73
2021/04/16 16:53:07;;;;;;;7.95;3.70;;;;;;;;;;5079721;28;31968;-73
2021/04/16 16:55:32;;;;;;;11.18;3.78;;;;;;;;;;5082546;28;33639;-72
2021/04/16 17:01:31;;;;;;;11.15;2.97;;;;;;;;;;5079966;28;32465;-72
2021/04/16 17:03:56;;;;;;;9.23;3.10;;;;;;;;;;5082228;28;32162;-72
2021/04/16 17:06:23;;;;;;;8.20;2.70;;;;;;;;;;5080947;28;30455;-72
2021/04/16 17:08:49;;;;;;;14.07;3.10;;;;;;;;;;5081706;28;33188;-69
2021/04/16 17:11:17;;;;;;;11.32;2.88;;;;;;;;;;5082195;28;32638;-71
2021/04/16 17:13:43;;;;;;;11.88;2.95;;;;;;;;;;5081871;28;32299;-71